createdAt,value
2023-04-02T00:20:12.306Z,9.75
2023-04-02T02:34:39.521Z,9.70
2023-04-02T03:04:21.619Z,9.47
2023-04-02T03:19:15.230Z,9.55
2023-04-02T03:34:12.005Z,9.57
2023-04-02T03:49:06.786Z,9.64
2023-04-02T04:03:58.532Z,9.65
2023-04-02T04:18:50.154Z,9.52
2023-04-02T04:33:39.979Z,9.49
2023-04-02T04:48:37.253Z,9.51
2023-04-02T05:03:39.860Z,9.47
2023-04-02T05:18:36.548Z,9.54
2023-04-02T05:33:27.543Z,9.50
2023-04-02T05:48:29.732Z,9.59
2023-04-02T06:03:33.628Z,9.64
2023-04-02T06:18:28.915Z,9.69
2023-04-02T06:33:20.042Z,9.77
2023-04-02T06:48:10.778Z,9.81
2023-04-02T07:03:01.511Z,9.88
2023-04-02T07:17:52.859Z,9.94
2023-04-02T07:32:43.966Z,10.21
2023-04-02T07:47:35.801Z,10.40
2023-04-02T08:02:26.930Z,10.65
2023-04-02T08:17:18.360Z,10.81
2023-04-02T08:32:09.823Z,10.95
2023-04-02T08:47:01.570Z,11.27
2023-04-02T09:02:03.145Z,11.43
2023-04-02T09:16:58.096Z,11.73
2023-04-02T09:31:50.751Z,12.19
2023-04-02T09:46:54.669Z,12.59
2023-04-02T10:01:54.398Z,13.05
2023-04-02T10:16:48.567Z,13.22
2023-04-02T10:47:12.108Z,13.00
2023-04-02T11:02:06.360Z,13.06
2023-04-02T11:16:58.712Z,13.14
2023-04-02T11:31:49.816Z,13.32
2023-04-02T12:02:05.421Z,14.34
2023-04-02T12:17:01.327Z,14.02
2023-04-02T12:31:51.231Z,13.76
2023-04-02T12:46:41.491Z,12.99
2023-04-02T13:01:30.209Z,12.52
2023-04-02T13:16:20.618Z,12.51
2023-04-02T13:31:10.673Z,11.98
2023-04-02T13:45:59.397Z,11.66
2023-04-02T14:00:50.301Z,11.33
2023-04-02T14:15:56.643Z,10.99
2023-04-02T14:31:07.705Z,10.94
2023-04-02T14:46:02.521Z,10.99
2023-04-02T15:01:07.021Z,10.75
2023-04-02T15:16:14.869Z,10.59
2023-04-02T15:46:29.478Z,10.34
2023-04-02T16:01:24.227Z,10.31
2023-04-02T16:16:30.447Z,10.31
2023-04-02T16:31:25.489Z,10.24
2023-04-02T16:46:39.329Z,10.12
2023-04-02T17:01:25.186Z,10.06
2023-04-02T17:16:18.078Z,9.71
2023-04-02T17:31:21.295Z,9.65
2023-04-02T17:46:21.261Z,9.46
2023-04-02T18:01:29.888Z,9.36
2023-04-02T18:16:39.259Z,8.98
2023-04-02T18:31:37.471Z,8.90
2023-04-02T18:46:30.445Z,8.58
2023-04-02T19:01:30.453Z,8.44
2023-04-02T19:16:46.654Z,8.19
2023-04-02T19:31:49.783Z,8.11
2023-04-02T19:46:44.506Z,7.90
2023-04-02T20:01:33.542Z,7.79
2023-04-02T21:01:09.874Z,7.17
2023-04-02T21:16:03.234Z,7.08
2023-04-02T21:30:52.776Z,7.00
2023-04-02T21:45:42.399Z,6.93
2023-04-02T22:00:33.163Z,6.92
2023-04-02T22:15:23.417Z,6.69
2023-04-02T22:30:14.970Z,6.73
2023-04-02T22:45:04.785Z,6.61
2023-04-02T22:59:54.991Z,6.66
2023-04-02T23:29:35.875Z,6.67
2023-04-02T23:44:26.737Z,6.71
